Aeroboteco Virtual Airline

Aeroboteco Virtual Airlines! Uma nuvem a frente.



 INFORMAÇÕES METEOROLÓGICAS
METAR FOR LEPP
ADDS - METARS form results

(0944 UTC 16 January 2019)
Data provider http://aviationweather.gov/metar/data/
 
METAR text: LEPP 160930Z 00000KT 7000 BKN003 01/M00 Q1018
Conditions at: LEPP (PAMPLONA/NOAIN , ES) observed 0930 UTC 16 January 2019
Temperature: 1.0°C (34°F)
Dewpoint: 0.0°C (32°F) [RH = 93%]
Pressure (altimeter): 30.06 inches Hg (1018.0 mb)
Winds: calm
Visibility: 4 miles ( 7 km)
Ceiling: 300 feet AGL
Clouds: broken clouds at 300 feet AGL
Weather: no significant weather observed at this time

METAR text: LEPP 160914Z 17002KT 6000 BKN003 00/M01 Q1018
Conditions at: LEPP (PAMPLONA/NOAIN , ES) observed 0914 UTC 16 January 2019
Temperature: 0.0°C (32°F)
Dewpoint: -1.0°C (30°F) [RH = 93%]
Pressure (altimeter): 30.06 inches Hg (1018.0 mb)
Winds: from the S (170 degrees) at 2 MPH (2 knots; 1.0 m/s)
Visibility: 4 miles ( 6 km)
Ceiling: 300 feet AGL
Clouds: broken clouds at 300 feet AGL
Weather: no significant weather observed at this time

METAR text: LEPP 160900Z VRB01KT 6000 SCT004 BKN008 00/M01 Q1018
Conditions at: LEPP (PAMPLONA/NOAIN , ES) observed 0900 UTC 16 January 2019
Temperature: 0.0°C (32°F)
Dewpoint: -1.0°C (30°F) [RH = 93%]
Pressure (altimeter): 30.06 inches Hg (1018.0 mb)
Winds: variable direction winds at 1 MPH (1 knots; 0.5 m/s)
Visibility: 4 miles ( 6 km)
Ceiling: 800 feet AGL
Clouds: scattered clouds at 400 feet AGL
broken clouds at 800 feet AGL
Weather: no significant weather observed at this time

Forecast for: AMD
Text: TAF AMD LEPP 160911Z 1609/1709 VRB05KT 8000 FEW010 TX10/1615Z TN01/1705Z
Forecast period: 0900 UTC 16 January 2019 to 0900 UTC 17 January 2019
Forecast type: FROM: standard forecast or significant change
Winds: variable direction winds at 6 MPH (5 knots; 2.6 m/s)
Visibility: 5 miles (8 km)
Ceiling: at least 12,000 feet AGL
Clouds: few clouds at 1000 feet AGL
Weather: no significant weather forecast for this period
Text: TEMPO 1609/1612 BKN004 BKN008
Forecast period: 0900 to 1200 UTC 16 January 2019
Forecast type: TEMPORARY: The following changes expected for less than half the time period
Visibility: missing
Ceiling: 400 feet AGL
Clouds: broken clouds at 400 feet AGL
broken clouds at 800 feet AGL
Weather: no significant weather forecast for this period
Text: PROB30
Forecast period: 0000 to 0900 UTC 17 January 2019
Forecast type: TEMPORARY: The following changes expected for less than half the time period
Visibility: 1.86 miles (2.99 km)
Ceiling: 1000 feet AGL
Clouds: broken clouds at 1000 feet AGL
Weather: RA  (moderate rain)
Text: TEMPO 1700/1709 3000 RA BKN010
Forecast period: 2100 UTC 16 January 2019 to 0800 UTC 17 January 2019
Forecast type: TEMPORARY: The following changes expected for less than half the time period
Visibility: 0.37 miles (0.60 km)
Ceiling: 200 feet AGL
Clouds: broken clouds at 200 feet AGL
Weather: BCFG  (patches of fog)

 MAPA DO AEROPORTO

 INFORMAÇÕES DA PISTA
Pista 15 Tamanho da pista 0 ft Largura da pista 0 ft
Elevação da pista 1468 ft Ranhura da pista 0 ft Proa da pista 0
Pista 33 Tamanho da pista 0 ft Largura da pista 0 ft
Elevação da pista 1500 ft Ranhura da pista 0 ft Proa da pista 0
Pista 16 Tamanho da pista 7241 ft Largura da pista 148 ft
Elevação da pista 1468 ft Ranhura da pista 0 ft Proa da pista 152
Pista 34 Tamanho da pista 7241 ft Largura da pista 148 ft
Elevação da pista 1504 ft Ranhura da pista 984 ft Proa da pista 332

 FREQUÊNCIAS DO AEROPORTO
Tipo APP Nome APP Frequência 118.2 MHZ
Tipo GND Nome GND Frequência 121.7 MHZ
Tipo TWR Nome TWR Frequência 118.2 MHZ

 AUXÍLIOS DE NAVEGAÇÃO PRÓXIMOS AO AEROPORTO
Tipo NDB Nome Pamplona Frequência 422 KHZ
Tipo VOR-DME Nome Pamplona Frequência 113550 KHZ
Tipo VOR-DME Nome Pamplona Frequência 112300 KHZ